createdAt,value
2018-03-22T00:00:06.177Z,-4.76
2018-03-22T00:01:06.067Z,-4.85
2018-03-22T00:02:05.949Z,-4.93
2018-03-22T00:03:05.868Z,-5.01
2018-03-22T00:04:06.251Z,-4.99
2018-03-22T00:05:05.666Z,-4.94
2018-03-22T00:06:05.599Z,-4.93
2018-03-22T00:07:06.253Z,-4.91
2018-03-22T00:08:05.347Z,-4.85
2018-03-22T00:09:05.264Z,-4.79
2018-03-22T00:10:05.197Z,-4.79
2018-03-22T00:11:05.047Z,-4.66
2018-03-22T00:12:04.930Z,-4.65
2018-03-22T00:13:04.855Z,-4.65
2018-03-22T00:14:04.748Z,-4.56
2018-03-22T00:15:04.622Z,-4.56
2018-03-22T00:16:04.623Z,-4.65
2018-03-22T00:17:04.439Z,-4.74
2018-03-22T00:18:04.338Z,-4.70
2018-03-22T00:19:04.229Z,-4.88
2018-03-22T00:20:04.101Z,-4.85
2018-03-22T00:21:04.032Z,-4.91
2018-03-22T00:22:03.948Z,-4.81
2018-03-22T00:23:03.823Z,-4.72
2018-03-22T00:24:03.739Z,-4.70
2018-03-22T00:25:03.591Z,-4.58
2018-03-22T00:26:03.527Z,-4.54
2018-03-22T00:27:03.410Z,-4.55
2018-03-22T00:28:03.371Z,-4.63
2018-03-22T00:29:03.185Z,-4.74
2018-03-22T00:30:03.089Z,-4.74
2018-03-22T00:31:03.005Z,-4.87
2018-03-22T00:32:02.907Z,-4.93
2018-03-22T00:33:02.826Z,-4.91
2018-03-22T00:34:02.772Z,-4.84
2018-03-22T00:35:02.612Z,-4.87
2018-03-22T00:36:02.478Z,-4.90
2018-03-22T00:37:02.384Z,-4.91
2018-03-22T00:38:02.307Z,-4.95
2018-03-22T00:39:02.184Z,-4.91
2018-03-22T00:40:02.178Z,-5.02
2018-03-22T00:41:02.027Z,-4.91
2018-03-22T00:42:01.900Z,-4.59
2018-03-22T00:43:01.804Z,-4.49
2018-03-22T00:44:01.711Z,-4.51
2018-03-22T00:45:01.603Z,-4.41
2018-03-22T00:46:01.526Z,-4.38
2018-03-22T00:47:01.382Z,-4.34
2018-03-22T00:48:01.766Z,-4.36
2018-03-22T00:49:01.192Z,-4.33
2018-03-22T00:50:01.039Z,-4.41
2018-03-22T00:51:00.989Z,-4.38
2018-03-22T00:52:00.949Z,-4.49
2018-03-22T00:53:00.783Z,-4.58
2018-03-22T00:54:00.704Z,-4.76
2018-03-22T00:55:00.588Z,-4.72
2018-03-22T00:56:00.475Z,-4.73
2018-03-22T00:57:00.391Z,-4.72
2018-03-22T00:58:00.754Z,-4.56
2018-03-22T00:59:00.178Z,-4.44
2018-03-22T01:00:00.044Z,-4.20
2018-03-22T01:00:59.990Z,-4.31
2018-03-22T01:01:59.837Z,-4.36
2018-03-22T01:02:59.767Z,-4.30
2018-03-22T01:03:59.693Z,-4.52
2018-03-22T01:04:59.537Z,-4.45
2018-03-22T01:05:59.422Z,-4.54
2018-03-22T01:06:59.381Z,-4.44
2018-03-22T01:07:59.228Z,-4.54
2018-03-22T01:08:59.139Z,-4.48
2018-03-22T01:09:59.117Z,-4.52
2018-03-22T01:10:58.923Z,-4.52
2018-03-22T01:11:58.864Z,-4.54
2018-03-22T01:12:58.754Z,-4.55
2018-03-22T01:13:58.632Z,-4.52
2018-03-22T01:14:58.547Z,-4.33
2018-03-22T01:15:58.488Z,-4.31
2018-03-22T01:16:58.346Z,-4.30
2018-03-22T01:17:58.242Z,-4.28
2018-03-22T01:18:58.146Z,-4.19
2018-03-22T01:19:58.753Z,-4.34
2018-03-22T01:20:57.927Z,-4.33
2018-03-22T01:21:57.869Z,-4.36
2018-03-22T01:22:57.686Z,-4.34
2018-03-22T01:23:57.633Z,-4.37
2018-03-22T01:24:57.536Z,-4.37
2018-03-22T01:25:57.445Z,-4.41
2018-03-22T01:26:57.324Z,-4.37
2018-03-22T01:27:57.522Z,-4.38
2018-03-22T01:28:57.103Z,-4.52
2018-03-22T01:29:57.038Z,-4.52
2018-03-22T01:30:56.924Z,-4.46
2018-03-22T01:31:56.824Z,-4.54
2018-03-22T01:32:56.715Z,-4.46
2018-03-22T01:33:56.646Z,-4.45
2018-03-22T01:34:57.256Z,-4.52
2018-03-22T01:35:56.424Z,-4.41
2018-03-22T01:36:56.282Z,-4.22
2018-03-22T01:37:56.209Z,-4.17
2018-03-22T01:38:56.110Z,-4.19
2018-03-22T01:39:56.063Z,-3.94
2018-03-22T01:40:55.958Z,-3.94
2018-03-22T01:41:55.812Z,-3.95
2018-03-22T01:42:55.733Z,-3.89
2018-03-22T01:43:55.637Z,-3.98
2018-03-22T01:44:55.430Z,-3.98
2018-03-22T01:45:55.464Z,-3.95
2018-03-22T01:46:55.290Z,-4.06
2018-03-22T01:47:55.206Z,-4.07
2018-03-22T01:48:55.096Z,-4.09
2018-03-22T01:49:55.027Z,-4.09
2018-03-22T01:50:54.899Z,-4.04
2018-03-22T01:51:54.845Z,-4.06
2018-03-22T01:52:54.694Z,-4.06
2018-03-22T01:53:54.605Z,-4.07
2018-03-22T01:54:54.489Z,-4.02
2018-03-22T01:55:55.256Z,-3.94
2018-03-22T01:56:54.252Z,-3.95
2018-03-22T01:57:54.221Z,-4.04
2018-03-22T01:58:54.093Z,-3.94
2018-03-22T01:59:53.972Z,-3.89
2018-03-22T02:00:53.888Z,-3.88
2018-03-22T02:01:53.788Z,-3.95
2018-03-22T02:02:53.663Z,-3.88
2018-03-22T02:03:54.255Z,-3.97
2018-03-22T02:04:53.470Z,-4.09
2018-03-22T02:05:53.390Z,-4.09
2018-03-22T02:06:53.273Z,-4.10
2018-03-22T02:07:53.199Z,-4.12
2018-03-22T02:08:53.756Z,-4.04
2018-03-22T02:09:52.975Z,-4.01
2018-03-22T02:10:52.845Z,-3.94
2018-03-22T02:11:52.770Z,-3.91
2018-03-22T02:12:53.438Z,-3.97
2018-03-22T02:13:52.598Z,-3.84
2018-03-22T02:14:52.440Z,-3.79
2018-03-22T02:15:53.256Z,-3.83
2018-03-22T02:16:52.279Z,-3.77
2018-03-22T02:17:52.164Z,-3.68
2018-03-22T02:18:52.759Z,-3.65
2018-03-22T02:19:51.950Z,-3.59
2018-03-22T02:20:52.762Z,-3.59
2018-03-22T02:21:52.756Z,-3.47
2018-03-22T02:23:01.255Z,-3.44
2018-03-22T02:23:51.564Z,-3.54
2018-03-22T02:24:51.466Z,-3.54
2018-03-22T02:25:51.410Z,-3.54
2018-03-22T02:26:51.250Z,-3.47
2018-03-22T02:27:51.221Z,-3.54
2018-03-22T02:28:51.061Z,-3.58
2018-03-22T02:29:50.953Z,-3.61
2018-03-22T02:30:50.905Z,-3.62
2018-03-22T02:31:50.752Z,-3.64
2018-03-22T02:32:50.621Z,-3.61
2018-03-22T02:33:50.607Z,-3.69
2018-03-22T02:34:51.257Z,-3.64
2018-03-22T02:35:50.363Z,-3.61
2018-03-22T02:36:50.232Z,-3.59
2018-03-22T02:37:50.116Z,-3.64
2018-03-22T02:38:50.059Z,-3.65
2018-03-22T02:39:50.760Z,-3.54
2018-03-22T02:40:49.829Z,-3.44
2018-03-22T02:41:49.741Z,-3.34
2018-03-22T02:42:49.665Z,-3.37
2018-03-22T02:43:49.574Z,-3.37
2018-03-22T02:44:49.421Z,-3.39
2018-03-22T02:45:49.361Z,-3.39
2018-03-22T02:46:49.215Z,-3.31
2018-03-22T02:47:49.107Z,-3.34
2018-03-22T02:48:49.019Z,-3.36
2018-03-22T02:49:48.888Z,-3.36
2018-03-22T02:50:48.794Z,-3.37
2018-03-22T02:51:48.743Z,-3.54
2018-03-22T02:52:48.639Z,-3.44
2018-03-22T02:53:48.537Z,-3.46
2018-03-22T02:54:48.454Z,-3.39
2018-03-22T02:55:48.305Z,-3.43
2018-03-22T02:56:48.208Z,-3.40
2018-03-22T02:57:48.191Z,-3.39
2018-03-22T02:58:48.043Z,-3.37
2018-03-22T02:59:47.889Z,-3.37
2018-03-22T03:00:47.835Z,-3.30
2018-03-22T03:01:47.722Z,-3.31
2018-03-22T03:02:47.652Z,-3.23
2018-03-22T03:03:47.586Z,-3.12
2018-03-22T03:04:47.417Z,-3.10
2018-03-22T03:05:47.350Z,-3.12
2018-03-22T03:06:47.222Z,-2.98
2018-03-22T03:07:47.152Z,-3.04
2018-03-22T03:08:47.007Z,-3.10
2018-03-22T03:09:46.982Z,-3.08
2018-03-22T03:10:46.823Z,-3.04
2018-03-22T03:11:47.260Z,-3.12
2018-03-22T03:12:46.634Z,-3.07
2018-03-22T03:13:46.535Z,-3.18
2018-03-22T03:14:46.444Z,-3.19
2018-03-22T03:15:46.366Z,-3.21
2018-03-22T03:16:46.229Z,-3.26
2018-03-22T03:17:46.132Z,-3.22
2018-03-22T03:18:46.014Z,-3.16
2018-03-22T03:19:45.934Z,-3.13
2018-03-22T03:20:45.827Z,-3.22
2018-03-22T03:21:45.766Z,-3.23
2018-03-22T03:22:45.600Z,-3.33
2018-03-22T03:23:45.562Z,-3.33
2018-03-22T03:24:45.433Z,-3.34
2018-03-22T03:25:45.336Z,-3.39
2018-03-22T03:26:45.213Z,-3.36
2018-03-22T03:27:45.154Z,-3.37
2018-03-22T03:28:45.021Z,-3.39
2018-03-22T03:29:44.921Z,-3.41
2018-03-22T03:30:44.789Z,-3.40
2018-03-22T03:31:44.693Z,-3.39
2018-03-22T03:32:44.577Z,-3.40
2018-03-22T03:33:44.560Z,-3.47
2018-03-22T03:34:44.416Z,-3.39
2018-03-22T03:35:44.306Z,-3.51
2018-03-22T03:36:44.237Z,-3.40
2018-03-22T03:37:44.141Z,-3.43
2018-03-22T03:38:44.024Z,-3.43
2018-03-22T03:39:43.934Z,-3.52
2018-03-22T03:40:43.798Z,-3.54
2018-03-22T03:41:43.747Z,-3.59
2018-03-22T03:42:43.614Z,-3.58
2018-03-22T03:43:43.514Z,-3.59
2018-03-22T03:44:43.430Z,-3.47
2018-03-22T03:45:43.324Z,-3.41
2018-03-22T03:46:43.232Z,-3.46
2018-03-22T03:47:43.117Z,-3.57
2018-03-22T03:48:43.002Z,-3.47
2018-03-22T03:49:42.950Z,-3.49
2018-03-22T03:50:42.795Z,-3.51
2018-03-22T03:51:42.792Z,-3.57
2018-03-22T03:52:42.611Z,-3.52
2018-03-22T03:53:42.531Z,-3.57
2018-03-22T03:54:42.414Z,-3.55
2018-03-22T03:55:42.308Z,-3.69
2018-03-22T03:56:42.200Z,-3.61
2018-03-22T03:57:42.147Z,-3.69
2018-03-22T03:58:41.999Z,-3.68
2018-03-22T03:59:41.902Z,-3.70
2018-03-22T04:00:41.787Z,-3.65
2018-03-22T04:01:41.660Z,-3.62
2018-03-22T04:02:41.611Z,-3.68
2018-03-22T04:03:41.556Z,-3.62
2018-03-22T04:04:41.410Z,-3.64
2018-03-22T04:05:41.326Z,-3.58
2018-03-22T04:06:41.208Z,-3.69
2018-03-22T04:07:41.074Z,-3.65
2018-03-22T04:08:41.031Z,-3.70
2018-03-22T04:09:40.937Z,-3.59
2018-03-22T04:10:40.813Z,-3.59
2018-03-22T04:11:40.722Z,-3.57
2018-03-22T04:12:40.622Z,-3.57
2018-03-22T04:13:40.535Z,-3.37
2018-03-22T04:14:40.399Z,-3.44
2018-03-22T04:15:40.763Z,-3.52
2018-03-22T04:16:40.200Z,-3.37
2018-03-22T04:17:40.115Z,-3.51
2018-03-22T04:18:39.969Z,-3.34
2018-03-22T04:19:39.947Z,-3.40
2018-03-22T04:20:39.802Z,-3.40
2018-03-22T04:21:39.756Z,-3.44
2018-03-22T04:22:39.599Z,-3.58
2018-03-22T04:23:39.520Z,-3.49
2018-03-22T04:24:39.406Z,-3.58
2018-03-22T04:25:39.293Z,-3.57
2018-03-22T04:26:39.193Z,-3.57
2018-03-22T04:27:39.172Z,-3.46
2018-03-22T04:28:39.003Z,-3.54
2018-03-22T04:29:38.915Z,-3.51
2018-03-22T04:30:38.794Z,-3.44
2018-03-22T04:31:38.682Z,-3.57
2018-03-22T04:32:38.601Z,-3.41
2018-03-22T04:33:38.491Z,-3.30
2018-03-22T04:34:38.417Z,-3.28
2018-03-22T04:35:38.254Z,-3.21
2018-03-22T04:36:39.764Z,-3.07
2018-03-22T04:37:38.104Z,-3.07
2018-03-22T04:38:37.986Z,-3.08
2018-03-22T04:39:38.026Z,-2.80
2018-03-22T04:40:37.803Z,-2.62
2018-03-22T04:41:37.680Z,-2.56
2018-03-22T04:42:37.596Z,-2.53
2018-03-22T04:43:37.488Z,-2.47
2018-03-22T04:44:37.353Z,-2.48
2018-03-22T04:45:37.324Z,-2.41
2018-03-22T04:46:37.167Z,-2.33
2018-03-22T04:47:37.054Z,-2.35
2018-03-22T04:48:36.932Z,-2.21
2018-03-22T04:49:36.864Z,-2.21
2018-03-22T04:50:36.777Z,-2.26
2018-03-22T04:51:36.737Z,-2.14
2018-03-22T04:52:36.575Z,-2.22
2018-03-22T04:53:36.429Z,-2.21
2018-03-22T04:54:36.400Z,-1.95
2018-03-22T04:55:36.287Z,-1.92
2018-03-22T04:56:36.161Z,-1.92
2018-03-22T04:57:36.097Z,-1.92
2018-03-22T04:58:35.939Z,-1.95
2018-03-22T04:59:35.877Z,-1.98
2018-03-22T05:00:35.768Z,-1.96
2018-03-22T05:01:35.689Z,-1.98
2018-03-22T05:02:35.571Z,-2.00
2018-03-22T05:03:35.763Z,-2.03
2018-03-22T05:04:35.361Z,-2.06
2018-03-22T05:05:35.309Z,-2.13
2018-03-22T05:06:35.195Z,-2.14
2018-03-22T05:07:35.098Z,-2.14
2018-03-22T05:08:34.982Z,-2.14
2018-03-22T05:09:34.922Z,-2.13
2018-03-22T05:10:34.784Z,-2.18
2018-03-22T05:11:34.690Z,-2.08
2018-03-22T05:12:34.580Z,-1.90
2018-03-22T05:13:34.466Z,-1.92
2018-03-22T05:14:34.382Z,-1.88
2018-03-22T05:15:34.329Z,-1.88
2018-03-22T05:16:34.178Z,-1.93
2018-03-22T05:17:34.097Z,-1.75
2018-03-22T05:18:33.974Z,-1.86
2018-03-22T05:19:33.895Z,-1.78
2018-03-22T05:20:33.742Z,-1.71
2018-03-22T05:21:33.709Z,-1.90
2018-03-22T05:22:33.595Z,-1.83
2018-03-22T05:23:33.458Z,-1.85
2018-03-22T05:24:33.415Z,-1.80
2018-03-22T05:25:33.952Z,-1.82
2018-03-22T05:26:33.141Z,-1.65
2018-03-22T05:27:33.102Z,-1.56
2018-03-22T05:28:32.973Z,-1.54
2018-03-22T05:29:32.875Z,-1.53
2018-03-22T05:30:32.771Z,-1.53
2018-03-22T05:31:32.654Z,-1.53
2018-03-22T05:32:32.582Z,-1.65
2018-03-22T05:33:32.515Z,-1.67
2018-03-22T05:34:32.381Z,-1.68
2018-03-22T05:35:32.247Z,-1.62
2018-03-22T05:36:32.157Z,-1.68
2018-03-22T05:37:32.084Z,-1.51
2018-03-22T05:38:31.955Z,-1.57
2018-03-22T05:39:31.947Z,-1.15
2018-03-22T05:40:31.814Z,-1.07
2018-03-22T05:41:31.669Z,-1.25
2018-03-22T05:42:31.620Z,-1.20
2018-03-22T05:43:31.474Z,-1.25
2018-03-22T05:44:31.361Z,-1.15
2018-03-22T05:45:31.338Z,-1.08
2018-03-22T05:46:31.199Z,-1.00
2018-03-22T05:47:31.070Z,-0.95
2018-03-22T05:48:30.979Z,-0.89
2018-03-22T05:49:30.853Z,-0.90
2018-03-22T05:50:30.749Z,-0.92
2018-03-22T05:51:30.756Z,-0.78
2018-03-22T05:52:30.582Z,-0.81
2018-03-22T05:53:30.476Z,-0.81
2018-03-22T05:54:30.376Z,-0.60
2018-03-22T05:55:30.278Z,-0.77
2018-03-22T05:56:30.221Z,-0.59
2018-03-22T05:57:30.215Z,-0.67
2018-03-22T05:58:29.986Z,-0.65
2018-03-22T05:59:29.893Z,-0.56
2018-03-22T06:00:29.790Z,-0.62
2018-03-22T06:01:29.713Z,-0.53
2018-03-22T06:02:29.558Z,-0.70
2018-03-22T06:03:29.564Z,-0.71
2018-03-22T06:04:29.378Z,-0.68
2018-03-22T06:05:29.272Z,-0.58
2018-03-22T06:06:29.183Z,-0.59
2018-03-22T06:07:29.772Z,-0.53
2018-03-22T06:08:29.005Z,-0.45
2018-03-22T06:09:28.970Z,-0.39
2018-03-22T06:10:28.764Z,-0.24
2018-03-22T06:11:28.697Z,-0.39
2018-03-22T06:12:28.646Z,-0.32
2018-03-22T06:13:28.472Z,-0.44
2018-03-22T06:14:28.400Z,-0.38
2018-03-22T06:15:28.350Z,-0.35
2018-03-22T06:16:28.194Z,-0.26
2018-03-22T06:17:28.109Z,-0.19
2018-03-22T06:18:27.981Z,-0.16
2018-03-22T06:19:27.901Z,-0.17
2018-03-22T06:20:27.807Z,-0.09
2018-03-22T06:21:27.756Z,-0.02
2018-03-22T06:22:27.617Z,0.01
2018-03-22T06:23:27.492Z,-0.08
2018-03-22T06:24:27.408Z,0.12
2018-03-22T06:25:27.319Z,0.13
2018-03-22T06:26:27.234Z,0.20
2018-03-22T06:27:27.164Z,0.07
2018-03-22T06:28:27.008Z,0.13
2018-03-22T06:29:26.925Z,0.12
2018-03-22T06:30:26.828Z,0.12
2018-03-22T06:31:26.743Z,0.08
2018-03-22T06:32:26.628Z,0.17
2018-03-22T06:33:26.568Z,0.28
2018-03-22T06:34:26.421Z,0.38
2018-03-22T06:35:26.321Z,0.43
2018-03-22T06:36:26.231Z,0.53
2018-03-22T06:37:26.128Z,0.75
2018-03-22T06:38:26.031Z,0.67
2018-03-22T06:39:25.978Z,0.77
2018-03-22T06:40:25.858Z,0.81
2018-03-22T06:41:25.746Z,0.74
2018-03-22T06:42:25.617Z,0.82
2018-03-22T06:43:25.557Z,0.90
2018-03-22T06:44:25.411Z,0.82
2018-03-22T06:45:25.392Z,0.84
2018-03-22T06:46:25.236Z,0.86
2018-03-22T06:47:25.154Z,0.88
2018-03-22T06:48:25.059Z,0.92
2018-03-22T06:49:24.981Z,0.93
2018-03-22T06:50:24.859Z,0.96
2018-03-22T06:51:24.834Z,1.02
2018-03-22T06:52:24.655Z,1.07
2018-03-22T06:53:24.555Z,1.14
2018-03-22T06:54:24.465Z,1.31
2018-03-22T06:55:24.362Z,1.21
2018-03-22T06:56:24.274Z,1.42
2018-03-22T06:57:24.225Z,1.50
2018-03-22T06:58:24.062Z,1.57
2018-03-22T06:59:23.939Z,1.79
2018-03-22T07:00:23.860Z,1.79
2018-03-22T07:01:23.770Z,1.98
2018-03-22T07:02:23.655Z,2.07
2018-03-22T07:03:23.621Z,2.08
2018-03-22T07:04:23.476Z,2.18
2018-03-22T07:05:23.354Z,2.20
2018-03-22T07:06:23.294Z,2.18
2018-03-22T07:07:23.185Z,2.01
2018-03-22T07:08:23.048Z,2.12
2018-03-22T07:09:23.083Z,2.00
2018-03-22T07:10:22.885Z,2.01
2018-03-22T07:11:22.790Z,2.18
2018-03-22T07:12:22.707Z,2.02
2018-03-22T07:13:22.596Z,2.08
2018-03-22T07:14:22.511Z,2.00
2018-03-22T07:15:22.446Z,1.93
2018-03-22T07:16:22.316Z,1.83
2018-03-22T07:17:22.205Z,1.85
2018-03-22T07:18:22.099Z,1.85
2018-03-22T07:19:21.994Z,1.71
2018-03-22T07:20:21.930Z,1.79
2018-03-22T07:21:21.856Z,1.77
2018-03-22T07:22:21.703Z,1.83
2018-03-22T07:23:21.641Z,1.92
2018-03-22T07:24:21.538Z,2.07
2018-03-22T07:25:21.452Z,2.04
2018-03-22T07:26:21.354Z,2.19
2018-03-22T07:27:21.309Z,2.38
2018-03-22T07:28:21.120Z,2.36
2018-03-22T07:29:21.078Z,2.58
2018-03-22T07:30:20.953Z,2.68
2018-03-22T07:31:20.855Z,2.86
2018-03-22T07:32:20.748Z,2.63
2018-03-22T07:33:20.672Z,2.62
2018-03-22T07:34:20.563Z,2.66
2018-03-22T07:35:20.476Z,2.62
2018-03-22T07:36:20.356Z,2.58
2018-03-22T07:37:20.274Z,2.63
2018-03-22T07:38:20.192Z,2.76
2018-03-22T07:39:20.128Z,2.74
2018-03-22T07:40:19.992Z,2.87
2018-03-22T07:41:19.884Z,2.99
2018-03-22T07:42:19.796Z,2.87
2018-03-22T07:43:19.705Z,3.07
2018-03-22T07:44:19.600Z,3.15
2018-03-22T07:45:19.592Z,2.94
2018-03-22T07:46:19.420Z,3.01
2018-03-22T07:47:19.377Z,3.08
2018-03-22T07:48:19.285Z,2.87
2018-03-22T07:49:19.132Z,2.90
2018-03-22T07:50:19.017Z,2.84
2018-03-22T07:51:18.956Z,2.84
2018-03-22T07:52:18.832Z,2.95
2018-03-22T07:53:18.751Z,2.94
2018-03-22T07:54:18.662Z,2.86
2018-03-22T07:55:18.550Z,2.83
2018-03-22T07:56:18.441Z,2.83
2018-03-22T07:57:18.409Z,3.01
2018-03-22T07:58:18.286Z,3.10
2018-03-22T07:59:18.193Z,3.25
2018-03-22T08:00:18.074Z,3.19
2018-03-22T08:01:17.992Z,3.13
2018-03-22T08:02:17.874Z,3.22
2018-03-22T08:03:17.856Z,2.98
2018-03-22T08:04:17.683Z,3.07
2018-03-22T08:05:17.579Z,3.16
2018-03-22T08:06:17.518Z,3.20
2018-03-22T08:07:17.419Z,3.26
2018-03-22T08:08:17.318Z,3.30
2018-03-22T08:09:17.266Z,3.33
2018-03-22T08:10:17.125Z,3.37
2018-03-22T08:11:17.024Z,3.45
2018-03-22T08:12:16.934Z,3.57
2018-03-22T08:13:16.812Z,3.78
2018-03-22T08:14:16.743Z,3.81
2018-03-22T08:15:16.673Z,3.78
2018-03-22T08:16:16.536Z,3.80
2018-03-22T08:17:16.446Z,3.23
2018-03-22T08:18:16.367Z,3.12
2018-03-22T08:19:16.264Z,3.04
2018-03-22T08:20:16.187Z,3.08
2018-03-22T08:21:16.117Z,3.19
2018-03-22T08:22:15.996Z,3.23
2018-03-22T08:23:15.885Z,3.22
2018-03-22T08:24:15.795Z,3.23
2018-03-22T08:25:15.699Z,3.19
2018-03-22T08:26:15.637Z,3.05
2018-03-22T08:27:15.534Z,3.12
2018-03-22T08:28:15.412Z,2.89
2018-03-22T08:29:15.321Z,2.74
2018-03-22T08:30:15.221Z,2.65
2018-03-22T08:31:15.108Z,2.69
2018-03-22T08:32:15.029Z,2.66
2018-03-22T08:33:14.949Z,2.63
2018-03-22T08:34:14.848Z,2.73
2018-03-22T08:35:14.741Z,2.71
2018-03-22T08:36:14.658Z,2.87
2018-03-22T08:37:14.547Z,2.86
2018-03-22T08:38:14.451Z,3.01
2018-03-22T08:39:14.420Z,2.99
2018-03-22T08:40:14.270Z,2.94
2018-03-22T08:41:14.233Z,2.76
2018-03-22T08:42:14.090Z,2.68
2018-03-22T08:43:14.000Z,2.80
2018-03-22T08:44:13.870Z,2.77
2018-03-22T08:45:13.852Z,2.73
2018-03-22T08:46:13.672Z,2.79
2018-03-22T08:47:13.614Z,2.77
2018-03-22T08:48:13.482Z,2.79
2018-03-22T08:49:13.394Z,2.65
2018-03-22T08:50:13.305Z,2.86
2018-03-22T08:51:13.280Z,2.80
2018-03-22T08:52:13.123Z,2.92
2018-03-22T08:53:13.030Z,2.81
2018-03-22T08:54:12.933Z,2.80
2018-03-22T08:55:12.832Z,2.69
2018-03-22T08:56:12.733Z,2.61
2018-03-22T08:57:12.671Z,2.38
2018-03-22T08:58:12.536Z,2.44
2018-03-22T08:59:12.456Z,2.33
2018-03-22T09:00:12.360Z,2.45
2018-03-22T09:01:12.253Z,2.45
2018-03-22T09:02:12.168Z,2.47
2018-03-22T09:03:12.131Z,2.50
2018-03-22T09:04:11.972Z,2.55
2018-03-22T09:05:11.882Z,2.53
2018-03-22T09:06:11.782Z,2.45
2018-03-22T09:07:11.662Z,2.53
2018-03-22T09:08:11.586Z,2.47
2018-03-22T09:09:11.528Z,2.53
2018-03-22T09:10:11.381Z,2.56
2018-03-22T09:11:11.284Z,2.66
2018-03-22T09:12:11.193Z,2.79
2018-03-22T09:13:11.105Z,2.74
2018-03-22T09:14:11.082Z,2.65
2018-03-22T09:15:10.949Z,2.62
2018-03-22T09:16:10.816Z,2.79
2018-03-22T09:17:10.733Z,2.80
2018-03-22T09:18:10.631Z,2.69
2018-03-22T09:19:10.534Z,2.77
2018-03-22T09:20:10.444Z,2.77
2018-03-22T09:21:10.384Z,2.80
2018-03-22T09:22:10.241Z,2.99
2018-03-22T09:23:10.157Z,3.02
2018-03-22T09:24:10.039Z,2.95
2018-03-22T09:25:09.959Z,3.05
2018-03-22T09:26:09.871Z,2.98
2018-03-22T09:27:09.783Z,3.10
2018-03-22T09:28:09.675Z,2.94
2018-03-22T09:29:09.570Z,3.02
2018-03-22T09:30:09.482Z,3.12
2018-03-22T09:31:09.401Z,3.15
2018-03-22T09:32:09.280Z,3.20
2018-03-22T09:33:09.252Z,3.37
2018-03-22T09:34:09.092Z,3.12
2018-03-22T09:35:09.001Z,3.20
2018-03-22T09:36:08.911Z,3.33
2018-03-22T09:37:08.808Z,3.50
2018-03-22T09:38:08.748Z,3.45
2018-03-22T09:39:08.644Z,3.50
2018-03-22T09:40:08.532Z,3.42
2018-03-22T09:41:08.433Z,3.49
2018-03-22T09:42:08.336Z,3.63
2018-03-22T09:43:08.255Z,3.75
2018-03-22T09:44:08.160Z,3.78
2018-03-22T09:45:08.055Z,3.89
2018-03-22T09:46:07.942Z,3.70
2018-03-22T09:47:07.866Z,3.72
2018-03-22T09:48:07.757Z,3.89
2018-03-22T09:49:07.657Z,4.02
2018-03-22T09:50:07.558Z,4.08
2018-03-22T09:51:07.560Z,4.02
2018-03-22T09:52:07.381Z,4.02
2018-03-22T09:53:07.296Z,4.06
2018-03-22T09:54:07.190Z,4.39
2018-03-22T09:55:07.092Z,4.62
2018-03-22T09:56:07.011Z,4.72
2018-03-22T09:57:06.941Z,4.59
2018-03-22T09:58:06.815Z,4.24
2018-03-22T09:59:06.726Z,4.20
2018-03-22T10:00:06.625Z,4.53
2018-03-22T10:01:06.527Z,4.49
2018-03-22T10:02:06.429Z,4.79
2018-03-22T10:03:06.415Z,4.68
2018-03-22T10:04:06.256Z,4.59
2018-03-22T10:05:06.145Z,4.64
2018-03-22T10:06:06.056Z,4.62
2018-03-22T10:07:05.965Z,4.39
2018-03-22T10:08:05.898Z,4.25
2018-03-22T10:09:05.831Z,4.26
2018-03-22T10:10:05.701Z,4.32
2018-03-22T10:11:05.598Z,4.06
2018-03-22T10:12:05.497Z,4.36
2018-03-22T10:13:05.408Z,4.50
2018-03-22T10:14:05.312Z,4.64
2018-03-22T10:15:05.248Z,4.90
2018-03-22T10:16:05.130Z,4.86
2018-03-22T10:17:05.026Z,4.47
2018-03-22T10:18:04.928Z,4.57
2018-03-22T10:19:04.835Z,4.61
2018-03-22T10:20:04.749Z,4.64
2018-03-22T10:21:04.688Z,4.67
2018-03-22T10:22:04.572Z,4.93
2018-03-22T10:23:04.481Z,5.02
2018-03-22T10:24:04.398Z,5.12
2018-03-22T10:25:04.287Z,5.30
2018-03-22T10:26:04.169Z,5.47
2018-03-22T10:27:04.117Z,5.85
2018-03-22T10:28:03.984Z,6.20
2018-03-22T10:29:03.880Z,6.42
2018-03-22T10:30:03.825Z,6.35
2018-03-22T10:31:03.725Z,6.43
2018-03-22T10:32:03.639Z,6.60
2018-03-22T10:33:03.572Z,6.43
2018-03-22T10:34:03.458Z,6.38
2018-03-22T10:35:03.325Z,6.30
2018-03-22T10:36:03.275Z,5.81
2018-03-22T10:37:03.160Z,5.35
2018-03-22T10:38:03.082Z,5.35
2018-03-22T10:39:03.002Z,5.37
2018-03-22T10:40:02.892Z,5.49
2018-03-22T10:41:02.788Z,5.52
2018-03-22T10:42:02.742Z,5.14
2018-03-22T10:43:02.614Z,5.04
2018-03-22T10:44:02.519Z,5.04
2018-03-22T10:45:02.484Z,4.88
2018-03-22T10:46:02.336Z,5.01
2018-03-22T10:47:02.206Z,4.94
2018-03-22T10:48:02.138Z,4.84
2018-03-22T10:49:02.070Z,4.83
2018-03-22T10:50:01.999Z,4.62
2018-03-22T10:51:01.917Z,4.64
2018-03-22T10:52:01.783Z,4.91
2018-03-22T10:53:01.693Z,5.01
2018-03-22T10:54:01.609Z,5.22
2018-03-22T10:55:01.501Z,5.38
2018-03-22T10:56:01.423Z,5.35
2018-03-22T10:57:01.386Z,5.12
2018-03-22T10:58:01.228Z,5.12
2018-03-22T10:59:01.134Z,4.93
2018-03-22T11:00:01.052Z,5.14
2018-03-22T11:01:00.983Z,5.08
2018-03-22T11:02:00.841Z,4.91
2018-03-22T11:03:00.829Z,4.87
2018-03-22T11:04:00.675Z,4.71
2018-03-22T11:05:00.582Z,4.74
2018-03-22T11:06:00.519Z,4.71
2018-03-22T11:07:00.385Z,4.74
2018-03-22T11:08:00.304Z,4.62
2018-03-22T11:09:00.232Z,4.65
2018-03-22T11:10:00.128Z,4.56
2018-03-22T11:11:00.026Z,4.59
2018-03-22T11:11:59.923Z,4.84
2018-03-22T11:12:59.857Z,4.79
2018-03-22T11:13:59.752Z,4.97
2018-03-22T11:14:59.718Z,4.90
2018-03-22T11:15:59.550Z,4.88
2018-03-22T11:16:59.449Z,4.94
2018-03-22T11:17:59.369Z,4.93
2018-03-22T11:18:59.276Z,4.67
2018-03-22T11:19:59.211Z,4.88
2018-03-22T11:20:59.158Z,4.71
2018-03-22T11:21:59.014Z,4.83
2018-03-22T11:22:58.907Z,4.57
2018-03-22T11:23:58.788Z,4.61
2018-03-22T11:24:58.709Z,4.86
2018-03-22T11:25:58.600Z,4.91
2018-03-22T11:26:58.548Z,4.53
2018-03-22T11:27:58.413Z,4.49
2018-03-22T11:28:58.395Z,4.61
2018-03-22T11:29:58.253Z,4.46
2018-03-22T11:30:58.158Z,4.51
2018-03-22T11:31:58.019Z,4.44
2018-03-22T11:32:58.007Z,4.43
2018-03-22T11:33:57.880Z,4.64
2018-03-22T11:34:57.794Z,4.08
2018-03-22T11:35:57.689Z,4.26
2018-03-22T11:36:57.585Z,4.26
2018-03-22T11:37:57.499Z,4.29
2018-03-22T11:38:57.448Z,4.56
2018-03-22T11:39:57.289Z,4.69
2018-03-22T11:40:57.204Z,4.83
2018-03-22T11:41:57.111Z,4.91
2018-03-22T11:42:57.016Z,4.94
2018-03-22T11:43:56.914Z,5.05
2018-03-22T11:44:56.872Z,4.99
2018-03-22T11:45:56.713Z,4.93
2018-03-22T11:46:56.637Z,4.72
2018-03-22T11:47:56.520Z,4.71
2018-03-22T11:48:56.452Z,4.36
2018-03-22T11:49:56.346Z,4.42
2018-03-22T11:50:56.317Z,4.72
2018-03-22T11:51:56.178Z,4.94
2018-03-22T11:52:56.056Z,5.14
2018-03-22T11:53:55.991Z,5.27
2018-03-22T11:54:55.934Z,5.30
2018-03-22T11:55:55.790Z,5.01
2018-03-22T11:56:55.777Z,5.26
2018-03-22T11:57:55.592Z,5.11
2018-03-22T11:58:55.470Z,5.08
2018-03-22T11:59:55.425Z,4.62
2018-03-22T12:00:55.321Z,4.42
2018-03-22T12:01:55.296Z,4.39
2018-03-22T12:02:55.173Z,4.35
2018-03-22T12:03:55.018Z,4.31
2018-03-22T12:04:54.949Z,3.92
2018-03-22T12:05:54.854Z,3.99
2018-03-22T12:06:54.756Z,4.06
2018-03-22T12:07:54.653Z,4.08
2018-03-22T12:08:54.615Z,3.95
2018-03-22T12:09:54.447Z,3.93
2018-03-22T12:10:54.362Z,4.07
2018-03-22T12:11:54.289Z,3.96
2018-03-22T12:12:54.190Z,3.74
2018-03-22T12:13:54.118Z,3.90
2018-03-22T12:14:54.078Z,3.54
2018-03-22T12:15:53.914Z,3.57
2018-03-22T12:16:53.798Z,3.60
2018-03-22T12:17:53.715Z,3.71
2018-03-22T12:18:53.596Z,3.71
2018-03-22T12:19:53.504Z,3.71
2018-03-22T12:20:53.449Z,3.62
2018-03-22T12:21:53.374Z,3.42
2018-03-22T12:22:53.254Z,3.33
2018-03-22T12:23:53.177Z,3.23
2018-03-22T12:24:53.105Z,3.34
2018-03-22T12:25:52.953Z,3.50
2018-03-22T12:26:52.913Z,3.35
2018-03-22T12:27:52.779Z,3.15
2018-03-22T12:28:52.674Z,3.17
2018-03-22T12:29:52.575Z,3.08
2018-03-22T12:30:52.485Z,3.26
2018-03-22T12:31:52.435Z,3.30
2018-03-22T12:32:52.355Z,3.52
2018-03-22T12:33:52.185Z,3.33
2018-03-22T12:34:52.132Z,3.20
2018-03-22T12:35:52.015Z,3.12
2018-03-22T12:36:51.913Z,3.07
2018-03-22T12:37:51.831Z,3.25
2018-03-22T12:38:51.745Z,3.19
2018-03-22T12:39:51.639Z,3.20
2018-03-22T12:40:51.556Z,3.42
2018-03-22T12:41:51.441Z,3.22
2018-03-22T12:42:51.368Z,3.23
2018-03-22T12:43:51.276Z,3.31
2018-03-22T12:44:51.200Z,3.12
2018-03-22T12:45:51.058Z,3.16
2018-03-22T12:46:50.991Z,3.08
2018-03-22T12:47:50.876Z,3.07
2018-03-22T12:48:50.802Z,3.15
2018-03-22T12:49:50.710Z,3.12
2018-03-22T12:50:50.659Z,3.02
2018-03-22T12:51:50.486Z,3.04
2018-03-22T12:52:50.397Z,2.92
2018-03-22T12:53:50.306Z,2.87
2018-03-22T12:54:50.242Z,2.76
2018-03-22T12:55:50.132Z,2.81
2018-03-22T12:56:50.067Z,2.65
2018-03-22T12:57:49.930Z,2.79
2018-03-22T12:58:49.825Z,2.79
2018-03-22T12:59:49.738Z,3.05
2018-03-22T13:00:49.704Z,3.05
2018-03-22T13:01:49.581Z,3.02
2018-03-22T13:02:49.512Z,3.01
2018-03-22T13:03:49.364Z,2.79